createdAt,value
2019-05-28T00:00:28.591Z,17.70
2019-05-28T00:02:59.162Z,17.60
2019-05-28T00:05:33.547Z,17.70
2019-05-28T00:08:04.940Z,17.60
2019-05-28T00:10:36.600Z,17.70
2019-05-28T00:13:07.926Z,17.60
2019-05-28T00:15:38.741Z,17.60
2019-05-28T00:18:10.596Z,17.60
2019-05-28T00:20:41.931Z,17.50
2019-05-28T00:23:12.111Z,17.50
2019-05-28T00:25:45.360Z,17.50
2019-05-28T00:28:17.319Z,17.50
2019-05-28T00:30:47.442Z,17.40
2019-05-28T00:33:19.293Z,17.40
2019-05-28T00:35:50.472Z,17.40
2019-05-28T00:38:23.844Z,17.40
2019-05-28T00:41:01.614Z,17.30
2019-05-28T00:43:31.783Z,17.40
2019-05-28T00:46:02.687Z,17.30
2019-05-28T00:48:32.952Z,17.30
2019-05-28T00:51:03.370Z,17.30
2019-05-28T00:53:34.172Z,17.30
2019-05-28T00:56:04.557Z,17.30
2019-05-28T00:58:40.487Z,17.30
2019-05-28T01:01:13.677Z,17.20
2019-05-28T01:03:44.207Z,17.20
2019-05-28T01:06:14.294Z,17.20
2019-05-28T01:08:44.672Z,17.20
2019-05-28T01:11:14.975Z,17.20
2019-05-28T01:13:45.082Z,17.10
2019-05-28T01:16:15.402Z,17.10
2019-05-28T01:18:46.532Z,17.10
2019-05-28T01:21:19.460Z,17.10
2019-05-28T01:23:50.204Z,17.10
2019-05-28T01:26:20.618Z,17.10
2019-05-28T01:28:53.553Z,17.10
2019-05-28T01:31:25.196Z,17.00
2019-05-28T01:33:57.371Z,17.00
2019-05-28T01:36:28.745Z,17.10
2019-05-28T01:38:58.847Z,17.00
2019-05-28T01:41:29.877Z,17.00
2019-05-28T01:44:03.092Z,17.00
2019-05-28T01:46:33.170Z,17.00
2019-05-28T01:49:07.958Z,17.00
2019-05-28T01:51:38.171Z,16.90
2019-05-28T01:54:08.316Z,16.90
2019-05-28T01:57:05.969Z,16.90
2019-05-28T01:59:37.934Z,16.90
2019-05-28T02:02:08.078Z,16.90
2019-05-28T02:04:38.468Z,16.90
2019-05-28T02:07:08.733Z,16.80
2019-05-28T02:09:39.129Z,16.80
2019-05-28T02:12:12.544Z,16.80
2019-05-28T02:14:45.530Z,16.80
2019-05-28T02:17:15.804Z,16.70
2019-05-28T02:19:46.467Z,16.70
2019-05-28T02:22:23.001Z,16.70
2019-05-28T02:24:55.644Z,16.70
2019-05-28T02:27:25.851Z,16.70
2019-05-28T02:29:59.448Z,16.70
2019-05-28T02:32:29.604Z,16.70
2019-05-28T02:34:59.873Z,16.70
2019-05-28T02:37:30.131Z,16.60
2019-05-28T02:40:00.761Z,16.60
2019-05-28T02:42:31.369Z,16.60
2019-05-28T02:45:03.062Z,16.50
2019-05-28T02:47:33.884Z,16.50
2019-05-28T02:50:11.844Z,16.40
2019-05-28T02:52:43.670Z,16.40
2019-05-28T02:55:15.151Z,16.40
2019-05-28T02:57:48.167Z,16.40
2019-05-28T03:00:19.532Z,16.40
2019-05-28T03:02:50.036Z,16.40
2019-05-28T03:05:23.428Z,16.30
2019-05-28T03:07:56.392Z,16.30
2019-05-28T03:11:00.122Z,16.30
2019-05-28T03:13:09.297Z,16.30
2019-05-28T03:15:46.305Z,16.30
2019-05-28T03:18:18.378Z,16.30
2019-05-28T03:20:49.342Z,16.20
2019-05-28T03:23:20.685Z,16.20
2019-05-28T03:25:51.001Z,16.20
2019-05-28T03:28:21.332Z,16.20
2019-05-28T03:30:51.614Z,16.20
2019-05-28T03:33:21.844Z,16.20
2019-05-28T03:35:56.098Z,16.20
2019-05-28T03:38:31.377Z,16.20
2019-05-28T03:41:03.634Z,16.20
2019-05-28T03:43:33.904Z,16.20
2019-05-28T03:46:04.586Z,16.20
2019-05-28T03:48:36.563Z,16.20
2019-05-28T03:51:07.103Z,16.30
2019-05-28T03:53:37.342Z,16.30
2019-05-28T03:56:08.441Z,16.30
2019-05-28T03:58:38.895Z,16.30
2019-05-28T04:01:10.084Z,16.30
2019-05-28T04:03:40.338Z,16.30
2019-05-28T04:06:15.329Z,16.30
2019-05-28T04:08:47.508Z,16.30
2019-05-28T04:11:18.127Z,16.30
2019-05-28T04:13:50.808Z,16.30
2019-05-28T04:16:23.778Z,16.30
2019-05-28T04:19:01.327Z,16.40
2019-05-28T04:21:31.480Z,16.40
2019-05-28T04:24:02.073Z,16.40
2019-05-28T04:26:37.123Z,16.40
2019-05-28T04:29:07.245Z,16.40
2019-05-28T04:31:37.473Z,16.40
2019-05-28T04:34:08.735Z,16.40
2019-05-28T04:36:40.751Z,16.40
2019-05-28T04:39:12.421Z,16.40
2019-05-28T04:41:43.614Z,16.40
2019-05-28T04:44:20.331Z,16.40
2019-05-28T04:46:53.222Z,16.50
2019-05-28T04:49:25.922Z,16.50
2019-05-28T04:51:59.264Z,16.50
2019-05-28T04:54:30.164Z,16.50
2019-05-28T04:57:01.912Z,16.50
2019-05-28T04:59:32.115Z,16.50
2019-05-28T05:02:02.922Z,16.50
2019-05-28T05:04:34.895Z,16.50
2019-05-28T05:07:08.386Z,16.50
2019-05-28T05:09:40.942Z,16.50
2019-05-28T05:12:11.239Z,16.50
2019-05-28T05:14:41.709Z,16.50
2019-05-28T05:17:14.159Z,16.50
2019-05-28T05:19:44.451Z,16.50
2019-05-28T05:22:15.677Z,16.50
2019-05-28T05:24:47.606Z,16.50
2019-05-28T05:27:19.341Z,16.50
2019-05-28T05:29:49.677Z,16.50
2019-05-28T05:32:23.096Z,16.50
2019-05-28T05:34:54.686Z,16.50
2019-05-28T05:37:25.065Z,16.50
2019-05-28T05:39:56.186Z,16.60
2019-05-28T05:42:26.524Z,16.60
2019-05-28T05:44:58.858Z,16.60
2019-05-28T05:47:31.099Z,16.70
2019-05-28T05:50:01.335Z,16.70
2019-05-28T05:52:33.859Z,16.80
2019-05-28T05:55:06.368Z,16.80
2019-05-28T05:57:39.295Z,16.90
2019-05-28T06:00:11.605Z,16.90
2019-05-28T06:02:42.156Z,17.00
2019-05-28T06:05:15.673Z,17.00
2019-05-28T06:07:47.364Z,17.00
2019-05-28T06:10:18.206Z,17.00
2019-05-28T06:12:49.334Z,17.00
2019-05-28T06:15:21.584Z,17.00
2019-05-28T06:17:52.606Z,17.00
2019-05-28T06:20:22.898Z,17.10
2019-05-28T06:22:55.316Z,17.10
2019-05-28T06:25:27.149Z,17.10
2019-05-28T06:27:59.667Z,17.10
2019-05-28T06:30:31.549Z,17.10
2019-05-28T06:33:03.631Z,17.10
2019-05-28T06:35:34.399Z,17.10
2019-05-28T06:38:05.115Z,17.10
2019-05-28T06:40:35.892Z,17.10
2019-05-28T06:43:11.431Z,17.10
2019-05-28T06:45:41.824Z,17.20
2019-05-28T06:48:12.253Z,17.10
2019-05-28T06:50:42.611Z,17.10
2019-05-28T06:53:13.140Z,17.10
2019-05-28T06:55:44.361Z,17.20
2019-05-28T06:58:14.879Z,17.20
2019-05-28T07:00:46.972Z,17.20
2019-05-28T07:03:19.964Z,17.10
2019-05-28T07:06:05.454Z,17.20
2019-05-28T07:08:22.484Z,17.10
2019-05-28T07:10:58.316Z,17.20
2019-05-28T07:13:27.904Z,17.20
2019-05-28T07:15:58.322Z,17.20
2019-05-28T07:18:28.858Z,17.20
2019-05-28T07:20:59.347Z,17.30
2019-05-28T07:23:29.790Z,17.40
2019-05-28T07:26:02.710Z,17.40
2019-05-28T07:28:33.128Z,17.40
2019-05-28T07:31:03.760Z,17.50
2019-05-28T07:33:35.709Z,17.70
2019-05-28T07:36:07.957Z,17.90
2019-05-28T07:38:38.637Z,18.10
2019-05-28T07:41:09.255Z,18.30
2019-05-28T07:43:41.188Z,18.50
2019-05-28T07:46:11.527Z,18.40
2019-05-28T07:48:44.554Z,18.20
2019-05-28T07:51:22.701Z,18.10
2019-05-28T07:53:53.279Z,18.00
2019-05-28T07:56:23.617Z,18.00
2019-05-28T07:58:58.471Z,17.80
2019-05-28T08:01:33.171Z,17.80
2019-05-28T08:04:05.726Z,17.70
2019-05-28T08:06:53.719Z,17.80
2019-05-28T08:09:09.480Z,17.70
2019-05-28T08:11:39.925Z,17.70
2019-05-28T08:14:11.751Z,17.60
2019-05-28T08:16:52.391Z,17.60
2019-05-28T08:19:16.082Z,17.50
2019-05-28T08:21:47.872Z,17.50
2019-05-28T08:24:22.887Z,17.40
2019-05-28T08:26:53.629Z,17.40
2019-05-28T08:29:24.269Z,17.30
2019-05-28T08:31:54.525Z,17.20
2019-05-28T08:34:26.283Z,17.20
2019-05-28T08:37:05.986Z,17.20
2019-05-28T08:39:33.246Z,17.20
2019-05-28T08:42:00.819Z,16.90
2019-05-28T08:44:31.588Z,16.80
2019-05-28T08:47:04.558Z,16.80
2019-05-28T08:49:35.136Z,16.70
2019-05-28T08:52:05.701Z,16.60
2019-05-28T08:54:37.700Z,16.50
2019-05-28T08:57:08.068Z,16.50
2019-05-28T08:59:38.575Z,16.40
2019-05-28T09:02:27.244Z,16.40
2019-05-28T09:04:45.673Z,16.30
2019-05-28T09:07:16.256Z,16.30
2019-05-28T09:09:48.241Z,16.30
2019-05-28T09:12:18.760Z,16.30
2019-05-28T09:14:55.896Z,16.20
2019-05-28T09:17:23.203Z,16.20
2019-05-28T09:19:53.821Z,16.30
2019-05-28T09:22:26.171Z,16.30
2019-05-28T09:24:56.284Z,16.40
2019-05-28T09:27:26.798Z,16.50
2019-05-28T09:29:57.391Z,16.60
2019-05-28T09:32:27.986Z,16.70
2019-05-28T09:35:01.715Z,16.90
2019-05-28T09:37:32.645Z,16.90
2019-05-28T09:40:02.882Z,17.00
2019-05-28T09:42:33.271Z,17.10
2019-05-28T09:45:21.437Z,17.10
2019-05-28T09:47:36.191Z,17.20
2019-05-28T09:50:26.974Z,17.10
2019-05-28T09:52:53.860Z,17.20
2019-05-28T09:55:14.726Z,17.10
2019-05-28T09:57:47.905Z,17.10
2019-05-28T10:00:21.246Z,17.20
2019-05-28T10:02:52.645Z,17.30
2019-05-28T10:05:23.477Z,17.30
2019-05-28T10:07:57.328Z,17.40
2019-05-28T10:10:29.500Z,17.40
2019-05-28T10:13:02.355Z,17.50
2019-05-28T10:15:33.824Z,17.60
2019-05-28T10:18:04.682Z,17.90
2019-05-28T10:20:37.858Z,18.10
2019-05-28T10:23:07.378Z,18.20
2019-05-28T10:25:38.382Z,18.30
2019-05-28T10:28:11.800Z,18.20
2019-05-28T10:30:44.946Z,18.10
2019-05-28T10:33:15.301Z,18.10
2019-05-28T10:35:45.778Z,18.20
2019-05-28T10:38:17.270Z,18.20
2019-05-28T10:40:53.376Z,18.30
2019-05-28T10:43:29.809Z,18.30
2019-05-28T10:46:00.632Z,18.30
2019-05-28T10:48:35.385Z,18.30
2019-05-28T10:51:07.447Z,18.40
2019-05-28T10:53:38.872Z,18.60
2019-05-28T10:56:14.155Z,18.60
2019-05-28T10:58:47.613Z,18.70
2019-05-28T11:01:18.073Z,18.70
2019-05-28T11:03:51.891Z,18.60
2019-05-28T11:06:22.501Z,18.60
2019-05-28T11:08:52.991Z,18.70
2019-05-28T11:11:25.381Z,18.60
2019-05-28T11:13:57.260Z,18.50
2019-05-28T11:16:29.801Z,18.40
2019-05-28T11:19:02.874Z,18.30
2019-05-28T11:21:32.130Z,18.30
2019-05-28T11:24:08.343Z,18.20
2019-05-28T11:26:42.393Z,18.10
2019-05-28T11:29:13.788Z,18.00
2019-05-28T11:31:47.346Z,18.00
2019-05-28T11:34:18.031Z,18.00
2019-05-28T11:36:48.776Z,18.10
2019-05-28T11:39:19.124Z,18.20
2019-05-28T11:41:49.822Z,18.40
2019-05-28T11:44:20.248Z,18.50
2019-05-28T11:46:52.627Z,18.50
2019-05-28T11:49:22.982Z,18.50
2019-05-28T11:51:53.330Z,18.30
2019-05-28T11:54:23.699Z,18.10
2019-05-28T11:56:54.145Z,18.00
2019-05-28T11:59:24.504Z,17.80
2019-05-28T12:01:54.891Z,17.80
2019-05-28T12:04:25.589Z,17.70
2019-05-28T12:06:58.163Z,17.60
2019-05-28T12:09:28.760Z,17.60
2019-05-28T12:11:59.439Z,17.60
2019-05-28T12:14:29.899Z,17.50
2019-05-28T12:17:03.318Z,17.50
2019-05-28T12:19:33.850Z,17.50
2019-05-28T12:22:04.236Z,17.50
2019-05-28T12:24:37.254Z,17.50
2019-05-28T12:27:07.731Z,17.50
2019-05-28T12:29:51.111Z,17.50
2019-05-28T12:32:10.834Z,17.70
2019-05-28T12:34:41.425Z,17.80
2019-05-28T12:37:13.321Z,18.00
2019-05-28T12:39:44.091Z,18.20
2019-05-28T12:42:14.807Z,18.50
2019-05-28T12:44:46.730Z,18.60
2019-05-28T12:47:18.778Z,18.70
2019-05-28T12:49:51.933Z,18.70
2019-05-28T12:52:22.599Z,18.80
2019-05-28T12:54:53.041Z,18.90
2019-05-28T12:57:26.834Z,18.90
2019-05-28T12:59:57.235Z,18.80
2019-05-28T13:02:28.022Z,18.70
2019-05-28T13:04:58.791Z,18.60
2019-05-28T13:07:31.308Z,18.60
2019-05-28T13:10:06.766Z,18.50
2019-05-28T13:12:39.092Z,18.60
2019-05-28T13:15:11.582Z,18.60
2019-05-28T13:17:42.355Z,18.60
2019-05-28T13:20:13.219Z,18.50
2019-05-28T13:22:45.100Z,18.70
2019-05-28T13:25:17.201Z,18.90
2019-05-28T13:27:47.574Z,18.90
2019-05-28T13:30:18.604Z,19.10
2019-05-28T13:32:49.130Z,19.10
2019-05-28T13:35:20.753Z,19.10
2019-05-28T13:37:53.919Z,18.90
2019-05-28T13:40:27.802Z,18.80
2019-05-28T13:42:58.282Z,18.60
2019-05-28T13:45:28.697Z,18.60
2019-05-28T13:47:59.166Z,18.70
2019-05-28T13:50:29.691Z,18.60
2019-05-28T13:53:00.678Z,18.50
2019-05-28T13:55:31.376Z,18.80
2019-05-28T13:58:02.073Z,19.10
2019-05-28T14:00:33.913Z,19.10
2019-05-28T14:03:04.894Z,19.00
2019-05-28T14:05:35.844Z,19.00
2019-05-28T14:08:08.911Z,19.00
2019-05-28T14:10:41.357Z,18.90
2019-05-28T14:13:12.011Z,18.90
2019-05-28T14:15:42.653Z,18.80
2019-05-28T14:18:13.101Z,18.90
2019-05-28T14:20:43.827Z,18.90
2019-05-28T14:23:20.950Z,19.00
2019-05-28T14:25:51.272Z,19.10
2019-05-28T14:28:21.592Z,19.10
2019-05-28T14:31:00.017Z,19.20
2019-05-28T14:33:26.807Z,19.30
2019-05-28T14:35:57.051Z,19.30
2019-05-28T14:38:30.979Z,19.20
2019-05-28T14:41:03.025Z,19.30
2019-05-28T14:43:37.794Z,19.50
2019-05-28T14:46:08.380Z,19.60
2019-05-28T14:48:38.781Z,19.50
2019-05-28T14:51:09.156Z,19.60
2019-05-28T14:53:42.253Z,19.60
2019-05-28T14:56:16.823Z,19.60
2019-05-28T14:58:47.444Z,19.60
2019-05-28T15:01:17.785Z,19.40
2019-05-28T15:03:51.262Z,19.30
2019-05-28T15:06:24.021Z,19.10
2019-05-28T15:08:54.456Z,19.00
2019-05-28T15:11:25.096Z,18.90
2019-05-28T15:13:57.783Z,18.80
2019-05-28T15:16:28.134Z,18.70
2019-05-28T15:18:58.986Z,18.70
2019-05-28T15:21:29.274Z,18.70
2019-05-28T15:24:01.692Z,18.70
2019-05-28T15:26:31.925Z,18.70
2019-05-28T15:29:05.454Z,18.70
2019-05-28T15:31:35.744Z,18.70
2019-05-28T15:34:08.026Z,18.70
2019-05-28T15:36:38.706Z,18.80
2019-05-28T15:39:09.131Z,18.70
2019-05-28T15:41:42.782Z,18.70
2019-05-28T15:44:13.462Z,18.70
2019-05-28T15:46:46.171Z,18.60
2019-05-28T15:49:17.819Z,18.40
2019-05-28T15:51:48.721Z,18.40
2019-05-28T15:54:19.327Z,18.40
2019-05-28T15:56:49.669Z,18.50
2019-05-28T15:59:24.973Z,18.50
2019-05-28T16:01:55.780Z,18.60
2019-05-28T16:04:26.142Z,18.60
2019-05-28T16:06:56.756Z,18.70
2019-05-28T16:09:32.551Z,18.70
2019-05-28T16:12:02.940Z,18.70
2019-05-28T16:14:33.329Z,18.70
2019-05-28T16:17:06.714Z,18.70
2019-05-28T16:19:37.489Z,18.70
2019-05-28T16:22:08.726Z,18.80
2019-05-28T16:24:40.691Z,18.80
2019-05-28T16:27:12.341Z,18.80
2019-05-28T16:29:43.019Z,18.80
2019-05-28T16:32:16.467Z,18.70
2019-05-28T16:34:47.976Z,18.60
2019-05-28T16:37:18.335Z,18.50
2019-05-28T16:39:49.232Z,18.40
2019-05-28T16:42:19.834Z,18.40
2019-05-28T16:44:50.230Z,18.50
2019-05-28T16:47:21.161Z,18.50
2019-05-28T16:49:53.815Z,18.50
2019-05-28T16:52:24.465Z,18.50
2019-05-28T16:54:57.551Z,18.50
2019-05-28T16:57:28.874Z,18.50
2019-05-28T16:59:59.320Z,18.40
2019-05-28T17:02:29.644Z,18.40
2019-05-28T17:05:02.770Z,18.40
2019-05-28T17:07:33.181Z,18.30
2019-05-28T17:10:05.617Z,18.40
2019-05-28T17:12:37.049Z,18.50
2019-05-28T17:15:08.433Z,18.60
2019-05-28T17:17:44.600Z,18.70
2019-05-28T17:20:15.597Z,18.70
2019-05-28T17:22:49.520Z,18.60
2019-05-28T17:25:22.599Z,18.60
2019-05-28T17:27:53.131Z,18.60
2019-05-28T17:30:24.492Z,18.50
2019-05-28T17:32:55.236Z,18.50
2019-05-28T17:35:25.781Z,18.50
2019-05-28T17:37:56.122Z,18.40
2019-05-28T17:40:26.507Z,18.40
2019-05-28T17:43:00.315Z,18.30
2019-05-28T17:45:32.432Z,18.20
2019-05-28T17:48:02.831Z,18.30
2019-05-28T17:50:33.235Z,18.20
2019-05-28T17:53:03.930Z,18.10
2019-05-28T17:55:34.913Z,18.10
2019-05-28T17:58:05.796Z,18.10
2019-05-28T18:00:36.504Z,18.10
2019-05-28T18:03:14.941Z,18.10
2019-05-28T18:05:48.777Z,18.10
2019-05-28T18:08:19.176Z,18.10
2019-05-28T18:11:03.363Z,18.10
2019-05-28T18:13:21.469Z,18.10
2019-05-28T18:15:52.695Z,18.10
2019-05-28T18:18:26.066Z,18.10
2019-05-28T18:20:57.043Z,18.10
2019-05-28T18:23:28.680Z,18.00
2019-05-28T18:25:59.334Z,18.00
2019-05-28T18:28:32.986Z,18.00
2019-05-28T18:31:03.380Z,17.90
2019-05-28T18:33:33.929Z,17.90
2019-05-28T18:36:10.088Z,17.80
2019-05-28T18:38:43.836Z,17.80
2019-05-28T18:41:21.542Z,17.70
2019-05-28T18:43:46.387Z,17.70
2019-05-28T18:46:17.175Z,17.70
2019-05-28T18:48:47.657Z,17.70
2019-05-28T18:51:20.239Z,17.70
2019-05-28T18:53:50.557Z,17.70
2019-05-28T18:56:22.535Z,17.70
2019-05-28T18:58:53.863Z,17.70
2019-05-28T19:01:24.306Z,17.60
2019-05-28T19:03:56.207Z,17.60
2019-05-28T19:06:26.645Z,17.60
2019-05-28T19:09:01.693Z,17.50
2019-05-28T19:11:38.035Z,17.40
2019-05-28T19:14:08.315Z,17.40
2019-05-28T19:16:38.733Z,17.40
2019-05-28T19:19:10.642Z,17.30
2019-05-28T19:21:41.335Z,17.30
2019-05-28T19:24:12.124Z,17.30
2019-05-28T19:26:46.211Z,17.30
2019-05-28T19:29:17.068Z,17.30
2019-05-28T19:31:49.166Z,17.20
2019-05-28T19:34:23.107Z,17.20
2019-05-28T19:36:56.484Z,17.20
2019-05-28T19:39:29.978Z,17.10
2019-05-28T19:42:01.169Z,17.10
2019-05-28T19:44:32.053Z,17.10
2019-05-28T19:47:02.788Z,17.10
2019-05-28T19:49:35.521Z,17.00
2019-05-28T19:52:08.227Z,17.00
2019-05-28T19:54:38.893Z,16.90
2019-05-28T19:57:09.352Z,17.00
2019-05-28T19:59:41.625Z,16.90
2019-05-28T20:02:17.122Z,16.90
2019-05-28T20:04:48.184Z,16.90
2019-05-28T20:07:19.090Z,16.90
2019-05-28T20:09:49.716Z,16.90
2019-05-28T20:12:20.868Z,16.80
2019-05-28T20:14:56.441Z,16.80
2019-05-28T20:17:29.510Z,16.80
2019-05-28T20:20:00.147Z,16.80
2019-05-28T20:22:30.542Z,16.80
2019-05-28T20:25:01.053Z,16.70
2019-05-28T20:27:31.516Z,16.70
2019-05-28T20:30:05.062Z,16.70
2019-05-28T20:32:38.329Z,16.60
2019-05-28T20:35:09.666Z,16.60
2019-05-28T20:37:41.117Z,16.60
2019-05-28T20:40:14.349Z,16.50
2019-05-28T20:42:44.483Z,16.50
2019-05-28T20:45:16.159Z,16.40
2019-05-28T20:47:46.675Z,16.40
2019-05-28T20:50:18.388Z,16.30
2019-05-28T20:52:48.727Z,16.30
2019-05-28T20:55:19.284Z,16.30
2019-05-28T20:57:53.235Z,16.20
2019-05-28T21:00:23.580Z,16.20
2019-05-28T21:02:53.894Z,16.10
2019-05-28T21:05:24.461Z,16.10
2019-05-28T21:07:54.757Z,16.00
2019-05-28T21:10:25.233Z,16.00
2019-05-28T21:12:56.847Z,16.00
2019-05-28T21:15:27.395Z,16.00
2019-05-28T21:17:57.585Z,15.90
2019-05-28T21:20:27.951Z,15.90
2019-05-28T21:23:02.373Z,15.80
2019-05-28T21:25:32.537Z,15.80
2019-05-28T21:28:03.136Z,15.70
2019-05-28T21:30:33.605Z,15.70
2019-05-28T21:33:05.601Z,15.70
2019-05-28T21:35:39.103Z,15.70
2019-05-28T21:38:11.451Z,15.60
2019-05-28T21:40:41.651Z,15.60
2019-05-28T21:43:11.971Z,15.50
2019-05-28T21:45:43.666Z,15.50
2019-05-28T21:48:14.006Z,15.50
2019-05-28T21:50:44.486Z,15.40
2019-05-28T21:53:14.827Z,15.40
2019-05-28T21:55:45.372Z,15.40
2019-05-28T21:58:16.070Z,15.30
2019-05-28T22:00:58.137Z,15.30
2019-05-28T22:03:28.932Z,15.20
2019-05-28T22:06:01.434Z,15.20
2019-05-28T22:08:32.053Z,15.20
2019-05-28T22:11:02.413Z,15.10
2019-05-28T22:13:34.242Z,15.10
2019-05-28T22:16:06.139Z,15.10
2019-05-28T22:18:36.407Z,15.00
2019-05-28T22:21:08.625Z,15.00
2019-05-28T22:23:42.124Z,14.90
2019-05-28T22:26:12.788Z,14.90
2019-05-28T22:28:45.810Z,14.80
2019-05-28T22:31:17.875Z,14.80
2019-05-28T22:33:48.060Z,14.70
2019-05-28T22:36:18.173Z,14.70
2019-05-28T22:39:07.123Z,14.60
2019-05-28T22:41:42.708Z,14.60
2019-05-28T22:44:16.064Z,14.60
2019-05-28T22:46:46.206Z,14.60
2019-05-28T22:49:16.389Z,14.50
2019-05-28T22:51:46.918Z,14.40
2019-05-28T22:54:18.890Z,14.40
2019-05-28T22:56:50.517Z,14.40
2019-05-28T22:59:24.187Z,14.40
2019-05-28T23:01:54.347Z,14.30
2019-05-28T23:04:24.793Z,14.30
2019-05-28T23:06:54.922Z,14.30
2019-05-28T23:09:25.316Z,14.20
2019-05-28T23:11:55.374Z,14.20
2019-05-28T23:14:25.781Z,14.20
2019-05-28T23:16:57.421Z,14.10
2019-05-28T23:19:28.155Z,14.10
2019-05-28T23:22:00.990Z,14.10
2019-05-28T23:24:31.134Z,14.00
2019-05-28T23:27:01.347Z,14.00
2019-05-28T23:29:33.966Z,14.00
2019-05-28T23:32:10.327Z,13.90
2019-05-28T23:34:40.822Z,13.90
2019-05-28T23:37:13.008Z,13.80
2019-05-28T23:39:43.246Z,13.80
2019-05-28T23:42:13.663Z,13.70
2019-05-28T23:44:45.899Z,13.70
2019-05-28T23:47:16.359Z,13.70
2019-05-28T23:49:46.534Z,13.70
2019-05-28T23:52:17.036Z,13.60
2019-05-28T23:54:47.900Z,13.60
2019-05-28T23:57:19.189Z,13.60
2019-05-28T23:59:51.724Z,13.60
